sensor_id;sensor_type;location;lat;lon;timestamp;P1;durP1;ratioP1;P2;durP2;ratioP2
5869;SDS011;2961;47.702;9.410;2023-04-30T00:02:02;12.80;;;8.47;;
5869;SDS011;2961;47.702;9.410;2023-04-30T00:04:29;9.90;;;7.43;;
5869;SDS011;2961;47.702;9.410;2023-04-30T00:06:56;10.17;;;8.00;;
5869;SDS011;2961;47.702;9.410;2023-04-30T00:09:23;12.47;;;8.20;;
5869;SDS011;2961;47.702;9.410;2023-04-30T00:11:49;9.93;;;7.30;;
5869;SDS011;2961;47.702;9.410;2023-04-30T00:14:16;9.87;;;7.40;;
5869;SDS011;2961;47.702;9.410;2023-04-30T00:16:43;9.03;;;7.53;;
5869;SDS011;2961;47.702;9.410;2023-04-30T00:19:11;12.50;;;8.93;;
5869;SDS011;2961;47.702;9.410;2023-04-30T00:21:38;11.30;;;8.70;;
5869;SDS011;2961;47.702;9.410;2023-04-30T00:24:05;11.73;;;8.17;;
5869;SDS011;2961;47.702;9.410;2023-04-30T00:26:32;7.90;;;7.10;;
5869;SDS011;2961;47.702;9.410;2023-04-30T00:28:59;7.63;;;6.67;;
5869;SDS011;2961;47.702;9.410;2023-04-30T00:31:25;9.40;;;7.40;;
5869;SDS011;2961;47.702;9.410;2023-04-30T00:33:52;11.20;;;7.83;;
5869;SDS011;2961;47.702;9.410;2023-04-30T00:36:20;10.73;;;8.83;;
5869;SDS011;2961;47.702;9.410;2023-04-30T00:38:47;9.10;;;7.07;;
5869;SDS011;2961;47.702;9.410;2023-04-30T00:41:14;10.37;;;7.77;;
5869;SDS011;2961;47.702;9.410;2023-04-30T00:43:41;9.13;;;7.63;;
5869;SDS011;2961;47.702;9.410;2023-04-30T00:46:10;11.27;;;7.93;;
5869;SDS011;2961;47.702;9.410;2023-04-30T00:48:37;10.83;;;7.90;;
5869;SDS011;2961;47.702;9.410;2023-04-30T00:51:04;12.67;;;7.63;;
5869;SDS011;2961;47.702;9.410;2023-04-30T00:53:33;13.00;;;8.27;;
5869;SDS011;2961;47.702;9.410;2023-04-30T00:56:01;13.10;;;8.13;;
5869;SDS011;2961;47.702;9.410;2023-04-30T00:58:28;10.37;;;8.00;;
5869;SDS011;2961;47.702;9.410;2023-04-30T01:00:55;10.20;;;7.60;;
5869;SDS011;2961;47.702;9.410;2023-04-30T01:03:23;9.17;;;7.00;;
5869;SDS011;2961;47.702;9.410;2023-04-30T01:05:50;10.13;;;7.43;;
5869;SDS011;2961;47.702;9.410;2023-04-30T01:08:17;9.17;;;7.00;;
5869;SDS011;2961;47.702;9.410;2023-04-30T01:10:47;11.47;;;8.47;;
5869;SDS011;2961;47.702;9.410;2023-04-30T01:13:21;10.83;;;8.10;;
5869;SDS011;2961;47.702;9.410;2023-04-30T01:15:56;12.20;;;8.80;;
5869;SDS011;2961;47.702;9.410;2023-04-30T01:18:28;12.47;;;8.80;;
5869;SDS011;2961;47.702;9.410;2023-04-30T01:23:49;11.27;;;8.30;;
5869;SDS011;2961;47.702;9.410;2023-04-30T01:26:33;11.30;;;8.33;;
5869;SDS011;2961;47.702;9.410;2023-04-30T01:29:15;14.10;;;10.20;;
5869;SDS011;2961;47.702;9.410;2023-04-30T01:31:44;17.23;;;9.73;;
5869;SDS011;2961;47.702;9.410;2023-04-30T01:37:01;9.77;;;7.60;;
5869;SDS011;2961;47.702;9.410;2023-04-30T01:39:44;9.83;;;7.53;;
5869;SDS011;2961;47.702;9.410;2023-04-30T01:42:19;12.23;;;8.70;;
5869;SDS011;2961;47.702;9.410;2023-04-30T01:44:53;13.07;;;9.30;;
5869;SDS011;2961;47.702;9.410;2023-04-30T01:47:32;10.90;;;7.80;;
5869;SDS011;2961;47.702;9.410;2023-04-30T01:50:06;13.87;;;8.30;;
5869;SDS011;2961;47.702;9.410;2023-04-30T01:52:43;11.73;;;8.77;;
5869;SDS011;2961;47.702;9.410;2023-04-30T01:55:13;9.87;;;8.10;;
5869;SDS011;2961;47.702;9.410;2023-04-30T01:57:45;11.30;;;8.57;;
5869;SDS011;2961;47.702;9.410;2023-04-30T02:00:23;13.70;;;8.70;;
5869;SDS011;2961;47.702;9.410;2023-04-30T02:02:50;10.43;;;8.60;;
5869;SDS011;2961;47.702;9.410;2023-04-30T02:05:17;13.83;;;7.50;;
5869;SDS011;2961;47.702;9.410;2023-04-30T02:07:44;11.50;;;8.30;;
5869;SDS011;2961;47.702;9.410;2023-04-30T02:10:13;11.10;;;8.47;;
5869;SDS011;2961;47.702;9.410;2023-04-30T02:12:41;12.47;;;9.07;;
5869;SDS011;2961;47.702;9.410;2023-04-30T02:15:08;11.67;;;8.40;;
5869;SDS011;2961;47.702;9.410;2023-04-30T02:17:37;10.70;;;7.03;;
5869;SDS011;2961;47.702;9.410;2023-04-30T02:20:05;9.77;;;7.57;;
5869;SDS011;2961;47.702;9.410;2023-04-30T02:22:32;10.57;;;6.90;;
5869;SDS011;2961;47.702;9.410;2023-04-30T02:24:59;9.87;;;7.43;;
5869;SDS011;2961;47.702;9.410;2023-04-30T02:27:28;10.97;;;7.70;;
5869;SDS011;2961;47.702;9.410;2023-04-30T02:29:56;14.83;;;7.80;;
5869;SDS011;2961;47.702;9.410;2023-04-30T02:32:23;11.30;;;7.47;;
5869;SDS011;2961;47.702;9.410;2023-04-30T02:34:52;8.67;;;7.00;;
5869;SDS011;2961;47.702;9.410;2023-04-30T02:37:18;11.50;;;7.80;;
5869;SDS011;2961;47.702;9.410;2023-04-30T02:39:46;13.70;;;8.20;;
5869;SDS011;2961;47.702;9.410;2023-04-30T02:42:13;12.13;;;6.57;;
5869;SDS011;2961;47.702;9.410;2023-04-30T02:44:40;9.93;;;7.63;;
5869;SDS011;2961;47.702;9.410;2023-04-30T02:47:07;8.30;;;6.83;;
5869;SDS011;2961;47.702;9.410;2023-04-30T02:49:34;9.00;;;7.13;;
5869;SDS011;2961;47.702;9.410;2023-04-30T02:52:02;9.80;;;7.60;;
5869;SDS011;2961;47.702;9.410;2023-04-30T02:54:30;7.70;;;6.60;;
5869;SDS011;2961;47.702;9.410;2023-04-30T02:56:56;9.87;;;8.00;;
5869;SDS011;2961;47.702;9.410;2023-04-30T02:59:23;11.00;;;7.20;;
5869;SDS011;2961;47.702;9.410;2023-04-30T03:01:51;7.73;;;6.93;;
5869;SDS011;2961;47.702;9.410;2023-04-30T03:04:18;8.57;;;6.93;;
5869;SDS011;2961;47.702;9.410;2023-04-30T03:06:44;7.93;;;7.00;;
5869;SDS011;2961;47.702;9.410;2023-04-30T03:09:12;11.73;;;7.37;;
5869;SDS011;2961;47.702;9.410;2023-04-30T03:11:40;8.90;;;6.73;;
5869;SDS011;2961;47.702;9.410;2023-04-30T03:14:06;9.50;;;7.63;;
5869;SDS011;2961;47.702;9.410;2023-04-30T03:16:33;9.00;;;6.57;;
5869;SDS011;2961;47.702;9.410;2023-04-30T03:19:00;9.33;;;6.47;;
5869;SDS011;2961;47.702;9.410;2023-04-30T03:21:27;12.07;;;6.80;;
5869;SDS011;2961;47.702;9.410;2023-04-30T03:23:54;9.03;;;7.13;;
5869;SDS011;2961;47.702;9.410;2023-04-30T03:26:22;9.67;;;7.63;;
5869;SDS011;2961;47.702;9.410;2023-04-30T03:28:48;12.73;;;7.37;;
5869;SDS011;2961;47.702;9.410;2023-04-30T03:31:15;11.50;;;8.10;;
5869;SDS011;2961;47.702;9.410;2023-04-30T03:33:42;7.70;;;6.93;;
5869;SDS011;2961;47.702;9.410;2023-04-30T03:36:09;10.60;;;8.17;;
5869;SDS011;2961;47.702;9.410;2023-04-30T03:38:36;10.80;;;7.47;;
5869;SDS011;2961;47.702;9.410;2023-04-30T03:41:03;9.50;;;7.30;;
5869;SDS011;2961;47.702;9.410;2023-04-30T03:43:32;8.20;;;7.10;;
5869;SDS011;2961;47.702;9.410;2023-04-30T03:45:58;11.63;;;7.57;;
5869;SDS011;2961;47.702;9.410;2023-04-30T03:48:25;9.20;;;7.37;;
5869;SDS011;2961;47.702;9.410;2023-04-30T03:50:52;8.97;;;6.73;;
5869;SDS011;2961;47.702;9.410;2023-04-30T03:53:19;10.70;;;8.37;;
5869;SDS011;2961;47.702;9.410;2023-04-30T03:55:46;10.13;;;7.50;;
5869;SDS011;2961;47.702;9.410;2023-04-30T03:58:14;9.43;;;7.20;;
5869;SDS011;2961;47.702;9.410;2023-04-30T04:00:42;9.23;;;7.23;;
5869;SDS011;2961;47.702;9.410;2023-04-30T04:03:11;11.77;;;7.63;;
5869;SDS011;2961;47.702;9.410;2023-04-30T04:05:38;9.80;;;7.40;;
5869;SDS011;2961;47.702;9.410;2023-04-30T04:08:05;8.97;;;7.43;;
5869;SDS011;2961;47.702;9.410;2023-04-30T04:10:32;7.90;;;7.10;;
5869;SDS011;2961;47.702;9.410;2023-04-30T04:12:59;9.47;;;7.47;;
5869;SDS011;2961;47.702;9.410;2023-04-30T04:15:26;10.13;;;7.70;;
5869;SDS011;2961;47.702;9.410;2023-04-30T04:17:54;15.77;;;7.63;;
5869;SDS011;2961;47.702;9.410;2023-04-30T04:20:21;9.93;;;7.67;;
5869;SDS011;2961;47.702;9.410;2023-04-30T04:22:48;11.20;;;9.47;;
5869;SDS011;2961;47.702;9.410;2023-04-30T04:25:15;11.63;;;9.07;;
5869;SDS011;2961;47.702;9.410;2023-04-30T04:27:42;9.50;;;7.83;;
5869;SDS011;2961;47.702;9.410;2023-04-30T04:30:09;13.83;;;9.57;;
5869;SDS011;2961;47.702;9.410;2023-04-30T04:32:37;11.33;;;8.23;;
5869;SDS011;2961;47.702;9.410;2023-04-30T04:35:13;9.23;;;8.30;;
5869;SDS011;2961;47.702;9.410;2023-04-30T04:37:40;12.10;;;9.67;;
5869;SDS011;2961;47.702;9.410;2023-04-30T04:40:07;10.70;;;8.57;;
5869;SDS011;2961;47.702;9.410;2023-04-30T04:42:36;11.33;;;9.33;;
5869;SDS011;2961;47.702;9.410;2023-04-30T04:45:04;10.40;;;8.37;;
5869;SDS011;2961;47.702;9.410;2023-04-30T04:47:31;11.83;;;9.17;;
5869;SDS011;2961;47.702;9.410;2023-04-30T04:49:58;10.63;;;8.57;;
5869;SDS011;2961;47.702;9.410;2023-04-30T04:52:26;12.63;;;8.83;;
5869;SDS011;2961;47.702;9.410;2023-04-30T04:54:53;15.67;;;10.03;;
5869;SDS011;2961;47.702;9.410;2023-04-30T04:57:21;18.30;;;9.60;;
5869;SDS011;2961;47.702;9.410;2023-04-30T04:59:48;13.77;;;9.03;;
5869;SDS011;2961;47.702;9.410;2023-04-30T05:02:14;11.43;;;9.50;;
5869;SDS011;2961;47.702;9.410;2023-04-30T05:04:41;11.60;;;9.70;;
5869;SDS011;2961;47.702;9.410;2023-04-30T05:07:08;15.97;;;9.50;;
5869;SDS011;2961;47.702;9.410;2023-04-30T05:09:36;10.50;;;8.73;;
5869;SDS011;2961;47.702;9.410;2023-04-30T05:12:03;14.93;;;9.43;;
5869;SDS011;2961;47.702;9.410;2023-04-30T05:14:31;14.30;;;10.20;;
5869;SDS011;2961;47.702;9.410;2023-04-30T05:16:57;11.63;;;8.60;;
5869;SDS011;2961;47.702;9.410;2023-04-30T05:19:24;10.47;;;8.90;;
5869;SDS011;2961;47.702;9.410;2023-04-30T05:21:51;13.03;;;9.30;;
5869;SDS011;2961;47.702;9.410;2023-04-30T05:24:18;11.30;;;9.10;;
5869;SDS011;2961;47.702;9.410;2023-04-30T05:26:46;11.90;;;9.10;;
5869;SDS011;2961;47.702;9.410;2023-04-30T05:29:13;14.83;;;9.80;;
5869;SDS011;2961;47.702;9.410;2023-04-30T05:31:39;13.63;;;8.50;;
5869;SDS011;2961;47.702;9.410;2023-04-30T05:34:06;10.40;;;9.30;;
5869;SDS011;2961;47.702;9.410;2023-04-30T05:36:33;12.37;;;10.30;;
5869;SDS011;2961;47.702;9.410;2023-04-30T05:39:00;17.07;;;9.73;;
5869;SDS011;2961;47.702;9.410;2023-04-30T05:41:27;12.80;;;10.00;;
5869;SDS011;2961;47.702;9.410;2023-04-30T05:43:55;13.00;;;9.87;;
5869;SDS011;2961;47.702;9.410;2023-04-30T05:46:22;14.33;;;10.30;;
5869;SDS011;2961;47.702;9.410;2023-04-30T05:48:48;12.93;;;10.20;;
5869;SDS011;2961;47.702;9.410;2023-04-30T05:51:15;11.40;;;9.00;;
5869;SDS011;2961;47.702;9.410;2023-04-30T05:53:42;11.77;;;9.50;;
5869;SDS011;2961;47.702;9.410;2023-04-30T05:56:09;16.20;;;10.50;;
5869;SDS011;2961;47.702;9.410;2023-04-30T05:58:36;15.27;;;10.63;;
5869;SDS011;2961;47.702;9.410;2023-04-30T06:01:05;15.07;;;10.40;;
5869;SDS011;2961;47.702;9.410;2023-04-30T06:03:35;10.87;;;9.00;;
5869;SDS011;2961;47.702;9.410;2023-04-30T06:06:02;15.87;;;11.40;;
5869;SDS011;2961;47.702;9.410;2023-04-30T06:08:29;24.47;;;10.87;;
5869;SDS011;2961;47.702;9.410;2023-04-30T06:10:55;11.07;;;9.77;;
5869;SDS011;2961;47.702;9.410;2023-04-30T06:13:22;15.23;;;11.07;;
5869;SDS011;2961;47.702;9.410;2023-04-30T06:15:49;13.23;;;9.90;;
5869;SDS011;2961;47.702;9.410;2023-04-30T06:18:17;13.80;;;10.37;;
5869;SDS011;2961;47.702;9.410;2023-04-30T06:20:44;12.50;;;9.93;;
5869;SDS011;2961;47.702;9.410;2023-04-30T06:23:11;14.67;;;11.13;;
5869;SDS011;2961;47.702;9.410;2023-04-30T06:25:38;14.10;;;11.30;;
5869;SDS011;2961;47.702;9.410;2023-04-30T06:28:05;12.00;;;9.50;;
5869;SDS011;2961;47.702;9.410;2023-04-30T06:30:33;12.40;;;10.83;;
5869;SDS011;2961;47.702;9.410;2023-04-30T06:33:00;16.37;;;11.50;;
5869;SDS011;2961;47.702;9.410;2023-04-30T06:35:28;11.00;;;9.90;;
5869;SDS011;2961;47.702;9.410;2023-04-30T06:37:55;14.00;;;9.80;;
5869;SDS011;2961;47.702;9.410;2023-04-30T06:40:22;12.40;;;10.40;;
5869;SDS011;2961;47.702;9.410;2023-04-30T06:42:48;20.67;;;10.53;;
5869;SDS011;2961;47.702;9.410;2023-04-30T06:45:15;15.83;;;11.80;;
5869;SDS011;2961;47.702;9.410;2023-04-30T06:47:43;13.50;;;10.93;;
5869;SDS011;2961;47.702;9.410;2023-04-30T06:50:11;11.60;;;10.30;;
5869;SDS011;2961;47.702;9.410;2023-04-30T06:52:41;12.60;;;9.63;;
5869;SDS011;2961;47.702;9.410;2023-04-30T06:55:08;12.30;;;10.97;;
5869;SDS011;2961;47.702;9.410;2023-04-30T06:57:34;14.13;;;10.67;;
5869;SDS011;2961;47.702;9.410;2023-04-30T07:00:02;10.30;;;9.20;;
5869;SDS011;2961;47.702;9.410;2023-04-30T07:02:29;13.33;;;8.83;;
5869;SDS011;2961;47.702;9.410;2023-04-30T07:04:56;10.90;;;9.47;;
5869;SDS011;2961;47.702;9.410;2023-04-30T07:07:23;15.20;;;9.00;;
5869;SDS011;2961;47.702;9.410;2023-04-30T07:09:51;11.93;;;8.83;;
5869;SDS011;2961;47.702;9.410;2023-04-30T07:12:18;10.10;;;7.93;;
5869;SDS011;2961;47.702;9.410;2023-04-30T07:14:46;12.27;;;9.50;;
5869;SDS011;2961;47.702;9.410;2023-04-30T07:17:13;9.80;;;8.40;;
5869;SDS011;2961;47.702;9.410;2023-04-30T07:19:39;11.40;;;8.37;;
5869;SDS011;2961;47.702;9.410;2023-04-30T07:22:06;8.43;;;7.63;;
5869;SDS011;2961;47.702;9.410;2023-04-30T07:24:33;8.47;;;7.67;;
5869;SDS011;2961;47.702;9.410;2023-04-30T07:27:01;8.17;;;7.37;;
5869;SDS011;2961;47.702;9.410;2023-04-30T07:29:31;11.47;;;7.30;;
5869;SDS011;2961;47.702;9.410;2023-04-30T07:31:58;8.43;;;7.10;;
5869;SDS011;2961;47.702;9.410;2023-04-30T07:34:24;6.97;;;6.33;;
5869;SDS011;2961;47.702;9.410;2023-04-30T07:36:51;6.20;;;5.70;;
5869;SDS011;2961;47.702;9.410;2023-04-30T07:39:18;7.13;;;6.43;;
5869;SDS011;2961;47.702;9.410;2023-04-30T07:41:45;6.83;;;6.30;;
5869;SDS011;2961;47.702;9.410;2023-04-30T07:44:13;5.97;;;5.43;;
5869;SDS011;2961;47.702;9.410;2023-04-30T07:46:40;7.43;;;6.83;;
5869;SDS011;2961;47.702;9.410;2023-04-30T07:49:07;6.87;;;6.20;;
5869;SDS011;2961;47.702;9.410;2023-04-30T07:51:34;6.67;;;6.07;;
5869;SDS011;2961;47.702;9.410;2023-04-30T07:54:01;6.40;;;5.40;;
5869;SDS011;2961;47.702;9.410;2023-04-30T07:56:28;6.57;;;6.07;;
5869;SDS011;2961;47.702;9.410;2023-04-30T07:58:55;6.20;;;5.60;;
5869;SDS011;2961;47.702;9.410;2023-04-30T08:01:23;7.20;;;5.37;;
5869;SDS011;2961;47.702;9.410;2023-04-30T08:03:50;5.77;;;5.10;;
5869;SDS011;2961;47.702;9.410;2023-04-30T08:06:16;6.90;;;6.30;;
5869;SDS011;2961;47.702;9.410;2023-04-30T08:08:43;6.00;;;5.50;;
5869;SDS011;2961;47.702;9.410;2023-04-30T08:11:10;6.87;;;5.83;;
5869;SDS011;2961;47.702;9.410;2023-04-30T08:13:37;6.63;;;5.93;;
5869;SDS011;2961;47.702;9.410;2023-04-30T08:16:04;7.20;;;6.50;;
5869;SDS011;2961;47.702;9.410;2023-04-30T08:18:32;6.57;;;6.03;;
5869;SDS011;2961;47.702;9.410;2023-04-30T08:20:59;12.50;;;5.50;;
5869;SDS011;2961;47.702;9.410;2023-04-30T08:23:26;6.97;;;6.00;;
5869;SDS011;2961;47.702;9.410;2023-04-30T08:25:52;5.20;;;4.80;;
5869;SDS011;2961;47.702;9.410;2023-04-30T08:28:20;5.80;;;5.30;;
5869;SDS011;2961;47.702;9.410;2023-04-30T08:30:46;6.20;;;4.87;;
5869;SDS011;2961;47.702;9.410;2023-04-30T08:33:13;6.83;;;5.57;;
5869;SDS011;2961;47.702;9.410;2023-04-30T08:35:41;6.83;;;5.40;;
5869;SDS011;2961;47.702;9.410;2023-04-30T08:38:08;6.53;;;5.93;;
5869;SDS011;2961;47.702;9.410;2023-04-30T08:40:35;7.70;;;5.20;;
5869;SDS011;2961;47.702;9.410;2023-04-30T08:43:03;5.47;;;4.97;;
5869;SDS011;2961;47.702;9.410;2023-04-30T08:45:31;5.87;;;5.37;;
5869;SDS011;2961;47.702;9.410;2023-04-30T08:48:01;5.80;;;5.30;;
5869;SDS011;2961;47.702;9.410;2023-04-30T08:50:28;10.33;;;5.63;;
5869;SDS011;2961;47.702;9.410;2023-04-30T08:52:57;5.67;;;5.17;;
5869;SDS011;2961;47.702;9.410;2023-04-30T08:55:25;6.07;;;5.47;;
5869;SDS011;2961;47.702;9.410;2023-04-30T08:57:52;6.13;;;5.00;;
5869;SDS011;2961;47.702;9.410;2023-04-30T09:00:19;6.10;;;5.23;;
5869;SDS011;2961;47.702;9.410;2023-04-30T09:02:46;6.67;;;5.13;;
5869;SDS011;2961;47.702;9.410;2023-04-30T09:05:14;6.87;;;5.50;;
5869;SDS011;2961;47.702;9.410;2023-04-30T09:07:41;5.40;;;4.90;;
5869;SDS011;2961;47.702;9.410;2023-04-30T09:10:18;9.83;;;5.20;;
5869;SDS011;2961;47.702;9.410;2023-04-30T09:12:57;6.60;;;6.03;;
5869;SDS011;2961;47.702;9.410;2023-04-30T09:15:24;8.03;;;4.87;;
5869;SDS011;2961;47.702;9.410;2023-04-30T09:17:54;5.83;;;4.77;;
5869;SDS011;2961;47.702;9.410;2023-04-30T09:20:31;3.97;;;3.67;;
5869;SDS011;2961;47.702;9.410;2023-04-30T09:23:04;5.63;;;5.17;;
5869;SDS011;2961;47.702;9.410;2023-04-30T09:25:38;7.23;;;4.73;;
5869;SDS011;2961;47.702;9.410;2023-04-30T09:28:06;4.30;;;4.00;;
5869;SDS011;2961;47.702;9.410;2023-04-30T09:30:34;7.40;;;5.53;;
5869;SDS011;2961;47.702;9.410;2023-04-30T09:33:01;4.97;;;4.57;;
5869;SDS011;2961;47.702;9.410;2023-04-30T09:35:28;4.77;;;4.47;;
5869;SDS011;2961;47.702;9.410;2023-04-30T09:37:57;3.73;;;3.53;;
5869;SDS011;2961;47.702;9.410;2023-04-30T09:40:31;4.37;;;4.07;;
5869;SDS011;2961;47.702;9.410;2023-04-30T09:43:01;5.20;;;4.37;;
5869;SDS011;2961;47.702;9.410;2023-04-30T09:45:38;4.63;;;4.23;;
5869;SDS011;2961;47.702;9.410;2023-04-30T09:48:07;3.77;;;3.57;;
5869;SDS011;2961;47.702;9.410;2023-04-30T09:50:36;5.83;;;4.50;;
5869;SDS011;2961;47.702;9.410;2023-04-30T09:53:04;3.77;;;3.47;;
5869;SDS011;2961;47.702;9.410;2023-04-30T09:55:32;3.37;;;3.07;;
5869;SDS011;2961;47.702;9.410;2023-04-30T09:58:03;3.60;;;3.40;;
5869;SDS011;2961;47.702;9.410;2023-04-30T10:00:31;3.70;;;3.50;;
5869;SDS011;2961;47.702;9.410;2023-04-30T10:03:00;3.77;;;2.90;;
5869;SDS011;2961;47.702;9.410;2023-04-30T10:05:33;3.70;;;3.40;;
5869;SDS011;2961;47.702;9.410;2023-04-30T10:08:03;3.90;;;3.60;;
5869;SDS011;2961;47.702;9.410;2023-04-30T10:10:32;3.77;;;3.50;;
5869;SDS011;2961;47.702;9.410;2023-04-30T10:13:03;4.10;;;3.80;;
5869;SDS011;2961;47.702;9.410;2023-04-30T10:15:34;3.80;;;3.60;;
5869;SDS011;2961;47.702;9.410;2023-04-30T10:18:04;3.73;;;3.43;;
5869;SDS011;2961;47.702;9.410;2023-04-30T10:20:36;3.67;;;3.37;;
5869;SDS011;2961;47.702;9.410;2023-04-30T10:23:05;3.57;;;3.27;;
5869;SDS011;2961;47.702;9.410;2023-04-30T10:25:32;3.33;;;3.23;;
5869;SDS011;2961;47.702;9.410;2023-04-30T10:27:59;3.80;;;3.60;;
5869;SDS011;2961;47.702;9.410;2023-04-30T10:30:27;3.70;;;3.50;;
5869;SDS011;2961;47.702;9.410;2023-04-30T10:32:56;4.10;;;3.80;;
5869;SDS011;2961;47.702;9.410;2023-04-30T10:35:32;3.50;;;3.20;;
5869;SDS011;2961;47.702;9.410;2023-04-30T10:38:06;12.43;;;3.40;;
5869;SDS011;2961;47.702;9.410;2023-04-30T10:40:39;2.70;;;2.60;;
5869;SDS011;2961;47.702;9.410;2023-04-30T10:43:10;3.47;;;3.27;;
5869;SDS011;2961;47.702;9.410;2023-04-30T10:45:40;4.43;;;3.20;;
5869;SDS011;2961;47.702;9.410;2023-04-30T10:48:08;3.37;;;3.10;;
5869;SDS011;2961;47.702;9.410;2023-04-30T10:50:38;3.40;;;3.20;;
5869;SDS011;2961;47.702;9.410;2023-04-30T10:53:07;4.37;;;3.03;;
5869;SDS011;2961;47.702;9.410;2023-04-30T10:55:43;2.97;;;2.87;;
5869;SDS011;2961;47.702;9.410;2023-04-30T10:58:22;3.60;;;3.37;;
5869;SDS011;2961;47.702;9.410;2023-04-30T11:00:58;3.10;;;3.00;;
5869;SDS011;2961;47.702;9.410;2023-04-30T11:03:29;3.07;;;2.80;;
5869;SDS011;2961;47.702;9.410;2023-04-30T11:05:57;3.60;;;3.27;;
5869;SDS011;2961;47.702;9.410;2023-04-30T11:08:31;3.53;;;2.90;;
5869;SDS011;2961;47.702;9.410;2023-04-30T11:10:59;3.23;;;2.90;;
5869;SDS011;2961;47.702;9.410;2023-04-30T11:13:27;3.93;;;3.63;;
5869;SDS011;2961;47.702;9.410;2023-04-30T11:15:57;6.27;;;2.73;;
5869;SDS011;2961;47.702;9.410;2023-04-30T11:18:28;3.67;;;3.37;;
5869;SDS011;2961;47.702;9.410;2023-04-30T11:20:56;2.80;;;2.70;;
5869;SDS011;2961;47.702;9.410;2023-04-30T11:23:24;3.00;;;2.80;;
5869;SDS011;2961;47.702;9.410;2023-04-30T11:25:52;3.20;;;3.00;;
5869;SDS011;2961;47.702;9.410;2023-04-30T11:28:22;3.27;;;3.07;;
5869;SDS011;2961;47.702;9.410;2023-04-30T11:30:50;8.63;;;2.93;;
5869;SDS011;2961;47.702;9.410;2023-04-30T11:33:19;2.53;;;2.43;;
5869;SDS011;2961;47.702;9.410;2023-04-30T11:35:47;2.60;;;2.50;;
5869;SDS011;2961;47.702;9.410;2023-04-30T11:38:16;3.17;;;2.87;;
5869;SDS011;2961;47.702;9.410;2023-04-30T11:40:45;3.10;;;2.90;;
5869;SDS011;2961;47.702;9.410;2023-04-30T11:43:20;2.63;;;2.43;;
5869;SDS011;2961;47.702;9.410;2023-04-30T11:45:57;3.00;;;2.80;;
5869;SDS011;2961;47.702;9.410;2023-04-30T11:48:30;3.00;;;2.80;;
5869;SDS011;2961;47.702;9.410;2023-04-30T11:50:57;2.97;;;2.77;;
5869;SDS011;2961;47.702;9.410;2023-04-30T11:53:27;2.83;;;2.57;;
5869;SDS011;2961;47.702;9.410;2023-04-30T11:55:55;17.70;;;2.87;;
5869;SDS011;2961;47.702;9.410;2023-04-30T11:58:21;2.83;;;2.73;;
5869;SDS011;2961;47.702;9.410;2023-04-30T12:00:49;2.23;;;2.13;;
5869;SDS011;2961;47.702;9.410;2023-04-30T12:03:17;3.53;;;3.33;;
5869;SDS011;2961;47.702;9.410;2023-04-30T12:05:46;2.27;;;2.17;;
5869;SDS011;2961;47.702;9.410;2023-04-30T12:08:12;3.30;;;3.10;;
5869;SDS011;2961;47.702;9.410;2023-04-30T12:10:39;5.67;;;2.87;;
5869;SDS011;2961;47.702;9.410;2023-04-30T12:13:06;2.83;;;2.63;;
5869;SDS011;2961;47.702;9.410;2023-04-30T12:15:33;2.03;;;1.97;;
5869;SDS011;2961;47.702;9.410;2023-04-30T12:18:10;2.80;;;2.60;;
5869;SDS011;2961;47.702;9.410;2023-04-30T12:20:39;2.33;;;2.23;;
5869;SDS011;2961;47.702;9.410;2023-04-30T12:23:08;2.20;;;2.20;;
5869;SDS011;2961;47.702;9.410;2023-04-30T12:25:39;2.53;;;2.43;;
5869;SDS011;2961;47.702;9.410;2023-04-30T12:28:06;3.27;;;2.37;;
5869;SDS011;2961;47.702;9.410;2023-04-30T12:30:33;3.20;;;2.27;;
5869;SDS011;2961;47.702;9.410;2023-04-30T12:33:00;3.30;;;2.80;;
5869;SDS011;2961;47.702;9.410;2023-04-30T12:35:28;5.37;;;2.60;;
5869;SDS011;2961;47.702;9.410;2023-04-30T12:38:00;3.87;;;2.07;;
5869;SDS011;2961;47.702;9.410;2023-04-30T12:40:29;2.10;;;2.00;;
5869;SDS011;2961;47.702;9.410;2023-04-30T12:43:00;2.83;;;2.47;;
5869;SDS011;2961;47.702;9.410;2023-04-30T12:48:10;2.50;;;2.40;;
5869;SDS011;2961;47.702;9.410;2023-04-30T12:50:38;2.50;;;2.40;;
5869;SDS011;2961;47.702;9.410;2023-04-30T12:53:05;2.27;;;2.17;;
5869;SDS011;2961;47.702;9.410;2023-04-30T12:55:34;5.13;;;2.30;;
5869;SDS011;2961;47.702;9.410;2023-04-30T12:58:07;2.50;;;2.40;;
5869;SDS011;2961;47.702;9.410;2023-04-30T13:00:44;2.80;;;2.60;;
5869;SDS011;2961;47.702;9.410;2023-04-30T13:03:12;2.53;;;2.43;;
5869;SDS011;2961;47.702;9.410;2023-04-30T13:05:40;2.47;;;2.37;;
5869;SDS011;2961;47.702;9.410;2023-04-30T13:08:12;3.10;;;2.60;;
5869;SDS011;2961;47.702;9.410;2023-04-30T13:10:40;2.77;;;2.53;;
5869;SDS011;2961;47.702;9.410;2023-04-30T13:13:07;2.40;;;2.30;;
5869;SDS011;2961;47.702;9.410;2023-04-30T13:15:34;2.83;;;2.63;;
5869;SDS011;2961;47.702;9.410;2023-04-30T13:18:01;2.50;;;2.40;;
5869;SDS011;2961;47.702;9.410;2023-04-30T13:20:28;2.37;;;2.27;;
5869;SDS011;2961;47.702;9.410;2023-04-30T13:22:55;2.33;;;2.13;;
5869;SDS011;2961;47.702;9.410;2023-04-30T13:25:22;4.30;;;2.80;;
5869;SDS011;2961;47.702;9.410;2023-04-30T13:27:50;2.30;;;2.20;;
5869;SDS011;2961;47.702;9.410;2023-04-30T13:30:16;2.37;;;2.27;;
5869;SDS011;2961;47.702;9.410;2023-04-30T13:32:43;2.60;;;2.40;;
5869;SDS011;2961;47.702;9.410;2023-04-30T13:35:10;2.40;;;2.30;;
5869;SDS011;2961;47.702;9.410;2023-04-30T13:37:37;3.57;;;2.50;;
5869;SDS011;2961;47.702;9.410;2023-04-30T13:40:05;6.37;;;3.07;;
5869;SDS011;2961;47.702;9.410;2023-04-30T13:42:32;3.13;;;2.50;;
5869;SDS011;2961;47.702;9.410;2023-04-30T13:45:01;2.40;;;2.30;;
5869;SDS011;2961;47.702;9.410;2023-04-30T13:47:28;2.50;;;2.40;;
5869;SDS011;2961;47.702;9.410;2023-04-30T13:49:55;3.47;;;3.20;;
5869;SDS011;2961;47.702;9.410;2023-04-30T13:52:22;3.10;;;2.70;;
5869;SDS011;2961;47.702;9.410;2023-04-30T13:54:49;2.50;;;2.27;;
5869;SDS011;2961;47.702;9.410;2023-04-30T13:57:16;2.70;;;2.50;;
5869;SDS011;2961;47.702;9.410;2023-04-30T13:59:43;2.67;;;2.57;;
5869;SDS011;2961;47.702;9.410;2023-04-30T14:02:12;2.67;;;2.50;;
5869;SDS011;2961;47.702;9.410;2023-04-30T14:04:39;2.13;;;2.07;;
5869;SDS011;2961;47.702;9.410;2023-04-30T14:07:05;2.70;;;2.50;;
5869;SDS011;2961;47.702;9.410;2023-04-30T14:09:32;7.27;;;2.50;;
5869;SDS011;2961;47.702;9.410;2023-04-30T14:11:59;1.80;;;1.80;;
5869;SDS011;2961;47.702;9.410;2023-04-30T14:14:26;2.30;;;2.20;;
5869;SDS011;2961;47.702;9.410;2023-04-30T14:16:53;2.30;;;2.20;;
5869;SDS011;2961;47.702;9.410;2023-04-30T14:19:21;3.47;;;2.77;;
5869;SDS011;2961;47.702;9.410;2023-04-30T14:21:48;1.90;;;1.90;;
5869;SDS011;2961;47.702;9.410;2023-04-30T14:24:15;2.30;;;2.20;;
5869;SDS011;2961;47.702;9.410;2023-04-30T14:26:42;1.60;;;1.60;;
5869;SDS011;2961;47.702;9.410;2023-04-30T14:29:09;3.10;;;2.03;;
5869;SDS011;2961;47.702;9.410;2023-04-30T14:31:36;2.17;;;2.07;;
5869;SDS011;2961;47.702;9.410;2023-04-30T14:34:03;2.43;;;2.00;;
5869;SDS011;2961;47.702;9.410;2023-04-30T14:36:32;2.87;;;2.67;;
5869;SDS011;2961;47.702;9.410;2023-04-30T14:38:59;2.53;;;2.43;;
5869;SDS011;2961;47.702;9.410;2023-04-30T14:41:28;2.37;;;2.27;;
5869;SDS011;2961;47.702;9.410;2023-04-30T14:43:59;2.37;;;2.27;;
5869;SDS011;2961;47.702;9.410;2023-04-30T14:46:26;2.40;;;2.30;;
5869;SDS011;2961;47.702;9.410;2023-04-30T14:48:53;2.20;;;2.10;;
5869;SDS011;2961;47.702;9.410;2023-04-30T14:51:19;1.97;;;1.97;;
5869;SDS011;2961;47.702;9.410;2023-04-30T14:53:47;3.27;;;2.67;;
5869;SDS011;2961;47.702;9.410;2023-04-30T14:56:14;2.10;;;2.00;;
5869;SDS011;2961;47.702;9.410;2023-04-30T14:58:41;2.27;;;2.17;;
5869;SDS011;2961;47.702;9.410;2023-04-30T15:01:08;2.00;;;1.80;;
5869;SDS011;2961;47.702;9.410;2023-04-30T15:03:35;5.73;;;2.13;;
5869;SDS011;2961;47.702;9.410;2023-04-30T15:06:02;2.13;;;2.00;;
5869;SDS011;2961;47.702;9.410;2023-04-30T15:08:29;3.03;;;2.73;;
5869;SDS011;2961;47.702;9.410;2023-04-30T15:10:57;2.47;;;2.23;;
5869;SDS011;2961;47.702;9.410;2023-04-30T15:13:24;3.20;;;2.77;;
5869;SDS011;2961;47.702;9.410;2023-04-30T15:15:51;2.50;;;2.30;;
5869;SDS011;2961;47.702;9.410;2023-04-30T15:18:18;2.37;;;2.27;;
5869;SDS011;2961;47.702;9.410;2023-04-30T15:20:45;2.50;;;2.40;;
5869;SDS011;2961;47.702;9.410;2023-04-30T15:23:11;2.63;;;2.50;;
5869;SDS011;2961;47.702;9.410;2023-04-30T15:25:38;2.30;;;2.20;;